createdAt,value
2017-04-10T00:00:34.134Z,9.87
2017-04-10T00:01:43.361Z,10.01
2017-04-10T00:02:52.899Z,9.96
2017-04-10T00:04:02.116Z,9.99
2017-04-10T00:05:11.334Z,9.94
2017-04-10T00:06:20.545Z,9.91
2017-04-10T00:07:29.633Z,9.93
2017-04-10T00:08:39.189Z,9.79
2017-04-10T00:09:48.087Z,9.89
2017-04-10T00:10:56.978Z,9.86
2017-04-10T00:12:06.188Z,9.83
2017-04-10T00:13:15.131Z,9.81
2017-04-10T00:14:24.021Z,9.94
2017-04-10T00:15:32.911Z,9.78
2017-04-10T00:16:41.834Z,9.93
2017-04-10T00:17:50.719Z,9.86
2017-04-10T00:18:59.609Z,9.91
2017-04-10T00:20:08.825Z,9.83
2017-04-10T00:21:18.039Z,9.79
2017-04-10T00:22:27.255Z,9.83
2017-04-10T00:23:36.144Z,9.78
2017-04-10T00:24:45.836Z,9.89
2017-04-10T00:25:55.057Z,9.83
2017-04-10T00:27:04.269Z,9.81
2017-04-10T00:28:14.134Z,9.75
2017-04-10T00:29:24.357Z,9.68
2017-04-10T00:30:33.823Z,9.65
2017-04-10T00:31:43.036Z,9.65
2017-04-10T00:32:51.925Z,9.65
2017-04-10T00:34:01.467Z,9.66
2017-04-10T00:35:10.678Z,9.66
2017-04-10T00:36:20.042Z,9.58
2017-04-10T00:37:28.939Z,9.64
2017-04-10T00:38:38.159Z,9.57
2017-04-10T00:39:47.374Z,9.53
2017-04-10T00:40:56.589Z,9.54
2017-04-10T00:42:05.958Z,9.61
2017-04-10T00:43:14.860Z,9.53
2017-04-10T00:44:24.730Z,9.54
2017-04-10T00:45:33.949Z,9.57
2017-04-10T00:46:43.498Z,9.5
2017-04-10T00:47:52.873Z,9.39
2017-04-10T00:49:02.748Z,9.36
2017-04-10T00:50:11.965Z,9.38
2017-04-10T00:51:21.504Z,9.33
2017-04-10T00:52:30.394Z,9.31
2017-04-10T00:53:39.811Z,9.31
2017-04-10T00:54:49.678Z,9.28
2017-04-10T00:55:58.575Z,9.35
2017-04-10T00:57:07.465Z,9.29
2017-04-10T00:58:16.681Z,9.32
2017-04-10T00:59:26.071Z,9.15
2017-04-10T01:00:35.944Z,9.24
2017-04-10T01:01:45.158Z,9.24
2017-04-10T01:02:54.054Z,9.23
2017-04-10T01:04:03.925Z,9.26
2017-04-10T01:05:13.612Z,9.18
2017-04-10T01:06:22.823Z,9.23
2017-04-10T01:07:32.363Z,9.13
2017-04-10T01:08:41.586Z,9.21
2017-04-10T01:09:50.800Z,9.14
2017-04-10T01:11:00.168Z,9.11
2017-04-10T01:12:09.062Z,9.13
2017-04-10T01:13:18.279Z,9.04
2017-04-10T01:14:27.830Z,9.04
2017-04-10T01:15:37.044Z,9.1
2017-04-10T01:16:46.463Z,9.02
2017-04-10T01:17:55.688Z,8.96
2017-04-10T01:19:04.898Z,9.08
2017-04-10T01:20:14.108Z,8.95
2017-04-10T01:21:22.993Z,8.91
2017-04-10T01:22:32.034Z,8.92
2017-04-10T01:23:40.918Z,8.91
2017-04-10T01:24:50.130Z,8.95
2017-04-10T01:25:59.347Z,8.94
2017-04-10T01:27:08.236Z,8.95
2017-04-10T01:28:17.746Z,8.86
2017-04-10T01:29:26.639Z,8.89
2017-04-10T01:30:35.525Z,8.83
2017-04-10T01:31:44.413Z,8.86
2017-04-10T01:32:53.295Z,8.86
2017-04-10T01:34:02.335Z,8.89
2017-04-10T01:35:11.878Z,8.84
2017-04-10T01:36:20.764Z,8.84
2017-04-10T01:37:29.973Z,8.83
2017-04-10T01:38:39.855Z,8.76
2017-04-10T01:39:49.269Z,8.87
2017-04-10T01:40:58.159Z,8.79
2017-04-10T01:42:07.051Z,8.8
2017-04-10T01:43:15.937Z,8.76
2017-04-10T01:44:24.825Z,8.76
2017-04-10T01:45:33.761Z,8.79
2017-04-10T01:46:42.645Z,8.77
2017-04-10T01:47:51.530Z,8.77
2017-04-10T01:49:01.387Z,8.68
2017-04-10T01:50:10.927Z,8.66
2017-04-10T01:51:19.965Z,8.66
2017-04-10T01:52:28.856Z,8.63
2017-04-10T01:53:38.072Z,8.61
2017-04-10T01:54:46.967Z,8.65
2017-04-10T01:55:55.862Z,8.61
2017-04-10T01:57:05.598Z,8.71
2017-04-10T01:58:14.809Z,8.61
2017-04-10T01:59:23.700Z,8.63
2017-04-10T02:00:32.591Z,8.59
2017-04-10T02:01:41.810Z,8.55
2017-04-10T02:02:50.701Z,8.61
2017-04-10T02:03:59.586Z,8.53
2017-04-10T02:05:08.804Z,8.62
2017-04-10T02:06:17.695Z,8.53
2017-04-10T02:07:26.906Z,8.56
2017-04-10T02:08:35.994Z,8.55
2017-04-10T02:09:45.205Z,8.62
2017-04-10T02:10:54.098Z,8.58
2017-04-10T02:12:02.983Z,8.59
2017-04-10T02:13:12.193Z,8.5
2017-04-10T02:14:21.712Z,8.56
2017-04-10T02:15:30.927Z,8.59
2017-04-10T02:16:40.467Z,8.53
2017-04-10T02:17:49.682Z,8.53
2017-04-10T02:18:59.220Z,8.59
2017-04-10T02:20:09.435Z,8.47
2017-04-10T02:21:18.323Z,8.5
2017-04-10T02:22:27.542Z,8.58
2017-04-10T02:23:36.757Z,8.47
2017-04-10T02:24:45.645Z,8.44
2017-04-10T02:25:54.583Z,8.52
2017-04-10T02:27:03.797Z,8.45
2017-04-10T02:28:13.660Z,8.52
2017-04-10T02:29:22.879Z,8.41
2017-04-10T02:30:32.095Z,8.47
2017-04-10T02:31:41.082Z,8.34
2017-04-10T02:32:49.971Z,8.43
2017-04-10T02:33:58.865Z,8.36
2017-04-10T02:35:07.751Z,8.4
2017-04-10T02:36:16.962Z,8.34
2017-04-10T02:37:26.580Z,8.4
2017-04-10T02:38:35.467Z,8.47
2017-04-10T02:39:44.352Z,8.34
2017-04-10T02:40:53.894Z,8.36
2017-04-10T02:42:02.782Z,8.33
2017-04-10T02:43:12.321Z,8.38
2017-04-10T02:44:21.860Z,8.33
2017-04-10T02:45:31.068Z,8.36
2017-04-10T02:46:39.955Z,8.36
2017-04-10T02:47:49.823Z,8.3
2017-04-10T02:48:59.716Z,8.29
2017-04-10T02:50:09.591Z,8.26
2017-04-10T02:51:18.479Z,8.29
2017-04-10T02:52:27.368Z,8.29
2017-04-10T02:53:36.260Z,8.28
2017-04-10T02:54:45.800Z,8.29
2017-04-10T02:55:55.016Z,8.2
2017-04-10T02:57:04.229Z,8.23
2017-04-10T02:58:13.115Z,8.29
2017-04-10T02:59:22.324Z,8.33
2017-04-10T03:00:31.307Z,8.29
2017-04-10T03:01:40.192Z,8.3
2017-04-10T03:02:49.081Z,8.36
2017-04-10T03:03:58.620Z,8.3
2017-04-10T03:05:07.507Z,8.34
2017-04-10T03:06:16.717Z,8.26
2017-04-10T03:07:25.929Z,8.33
2017-04-10T03:08:34.822Z,8.37
2017-04-10T03:09:44.361Z,8.34
2017-04-10T03:10:53.259Z,8.33
2017-04-10T03:12:02.204Z,8.33
2017-04-10T03:13:11.417Z,8.43
2017-04-10T03:14:20.629Z,8.47
2017-04-10T03:15:29.513Z,8.52
2017-04-10T03:16:38.407Z,8.55
2017-04-10T03:17:47.343Z,8.58
2017-04-10T03:18:56.239Z,8.58
2017-04-10T03:20:05.454Z,8.56
2017-04-10T03:21:14.992Z,8.55
2017-04-10T03:22:23.901Z,8.48
2017-04-10T03:23:33.272Z,8.5
2017-04-10T03:24:42.809Z,8.53
2017-04-10T03:25:51.696Z,8.55
2017-04-10T03:27:00.586Z,8.52
2017-04-10T03:28:09.476Z,8.63
2017-04-10T03:29:18.524Z,8.61
2017-04-10T03:30:27.413Z,8.63
2017-04-10T03:31:36.303Z,8.62
2017-04-10T03:32:45.521Z,8.59
2017-04-10T03:33:55.060Z,8.55
2017-04-10T03:35:04.746Z,8.56
2017-04-10T03:36:13.960Z,8.56
2017-04-10T03:37:23.172Z,8.62
2017-04-10T03:38:33.043Z,8.58
2017-04-10T03:39:41.937Z,8.61
2017-04-10T03:40:50.975Z,8.58
2017-04-10T03:41:59.864Z,8.59
2017-04-10T03:43:08.752Z,8.52
2017-04-10T03:44:17.642Z,8.53
2017-04-10T03:45:26.856Z,8.62
2017-04-10T03:46:36.227Z,8.61
2017-04-10T03:47:45.110Z,8.58
2017-04-10T03:48:53.997Z,8.59
2017-04-10T03:50:02.884Z,8.56
2017-04-10T03:51:11.774Z,8.68
2017-04-10T03:52:20.724Z,8.73
2017-04-10T03:53:29.612Z,8.8
2017-04-10T03:54:39.156Z,8.8
2017-04-10T03:55:48.693Z,8.79
2017-04-10T03:56:57.582Z,8.79
2017-04-10T03:58:06.727Z,8.81
2017-04-10T03:59:16.307Z,8.95
2017-04-10T04:00:25.192Z,8.95
2017-04-10T04:01:34.725Z,8.96
2017-04-10T04:02:43.612Z,9.11
2017-04-10T04:03:52.651Z,9.11
2017-04-10T04:05:01.864Z,9.21
2017-04-10T04:06:10.752Z,9.28
2017-04-10T04:07:19.642Z,9.38
2017-04-10T04:08:28.857Z,9.43
2017-04-10T04:09:37.901Z,9.5
2017-04-10T04:10:47.113Z,9.68
2017-04-10T04:11:56.325Z,9.69
2017-04-10T04:13:05.534Z,9.66
2017-04-10T04:14:14.744Z,9.65
2017-04-10T04:15:23.937Z,9.58
2017-04-10T04:16:33.155Z,9.53
2017-04-10T04:17:42.392Z,9.64
2017-04-10T04:18:51.280Z,9.64
2017-04-10T04:20:00.816Z,9.75
2017-04-10T04:21:10.114Z,9.75
2017-04-10T04:22:19.003Z,9.74
2017-04-10T04:23:28.218Z,9.79
2017-04-10T04:24:37.428Z,9.91
2017-04-10T04:25:46.325Z,9.91
2017-04-10T04:26:55.459Z,9.9
2017-04-10T04:28:04.363Z,9.89
2017-04-10T04:29:13.575Z,9.93
2017-04-10T04:30:22.462Z,10.07
2017-04-10T04:31:31.677Z,10.11
2017-04-10T04:32:41.039Z,10.05
2017-04-10T04:33:49.929Z,10.07
2017-04-10T04:34:59.147Z,10.07
2017-04-10T04:36:08.039Z,10.2
2017-04-10T04:37:16.924Z,10.3
2017-04-10T04:38:25.862Z,10.4
2017-04-10T04:39:34.750Z,10.32
2017-04-10T04:40:43.639Z,10.59
2017-04-10T04:41:52.525Z,10.6
2017-04-10T04:43:01.413Z,10.73
2017-04-10T04:44:10.549Z,10.81
2017-04-10T04:45:20.084Z,10.91
2017-04-10T04:46:28.974Z,10.97
2017-04-10T04:47:38.189Z,11.04
2017-04-10T04:48:47.075Z,11.17
2017-04-10T04:49:56.162Z,11.19
2017-04-10T04:51:05.051Z,11.22
2017-04-10T04:52:13.939Z,11.17
2017-04-10T04:53:22.829Z,11.29
2017-04-10T04:54:32.039Z,11.22
2017-04-10T04:55:41.405Z,11.24
2017-04-10T04:56:50.618Z,11.28
2017-04-10T04:57:59.512Z,11.25
2017-04-10T04:59:08.740Z,11.21
2017-04-10T05:00:17.631Z,11.24
2017-04-10T05:01:27.129Z,11.21
2017-04-10T05:02:36.016Z,11.21
2017-04-10T05:03:44.906Z,11.14
2017-04-10T05:04:53.800Z,11.22
2017-04-10T05:06:02.691Z,11.29
2017-04-10T05:07:11.663Z,11.28
2017-04-10T05:08:20.560Z,11.28
2017-04-10T05:09:30.105Z,11.29
2017-04-10T05:10:39.321Z,11.28
2017-04-10T05:11:48.209Z,11.28
2017-04-10T05:12:57.250Z,11.24
2017-04-10T05:14:06.141Z,11.24
2017-04-10T05:15:15.031Z,11.28
2017-04-10T05:16:24.244Z,11.25
2017-04-10T05:17:33.460Z,11.19
2017-04-10T05:18:42.500Z,11.27
2017-04-10T05:19:51.714Z,11.14
2017-04-10T05:21:00.603Z,11.24
2017-04-10T05:22:09.494Z,11.28
2017-04-10T05:23:18.712Z,11.19
2017-04-10T05:24:27.977Z,11.24
2017-04-10T05:25:37.193Z,11.21
2017-04-10T05:26:46.087Z,11.24
2017-04-10T05:27:54.984Z,11.18
2017-04-10T05:29:04.235Z,11.18
2017-04-10T05:30:13.598Z,11.1
2017-04-10T05:31:23.138Z,11.07
2017-04-10T05:32:32.032Z,11.17
2017-04-10T05:33:41.255Z,11.21
2017-04-10T05:34:50.143Z,11.1
2017-04-10T05:35:59.285Z,11.11
2017-04-10T05:37:08.495Z,11.24
2017-04-10T05:38:17.385Z,11.15
2017-04-10T05:39:26.282Z,11.14
2017-04-10T05:40:35.178Z,11.03
2017-04-10T05:41:44.388Z,11.14
2017-04-10T05:42:53.279Z,11.15
2017-04-10T05:44:02.171Z,11.06
2017-04-10T05:45:11.389Z,11.14
2017-04-10T05:46:20.608Z,11.14
2017-04-10T05:47:29.935Z,11.19
2017-04-10T05:48:38.824Z,11.11
2017-04-10T05:49:48.042Z,11.21
2017-04-10T05:50:56.928Z,11.17
2017-04-10T05:52:05.821Z,11.11
2017-04-10T05:53:15.189Z,11.15
2017-04-10T05:54:24.082Z,11.17
2017-04-10T05:55:32.973Z,11.19
2017-04-10T05:56:41.879Z,11.07
2017-04-10T05:57:50.769Z,11.15
2017-04-10T05:59:00.031Z,11.09
2017-04-10T06:00:08.950Z,11.1
2017-04-10T06:01:18.489Z,11.09
2017-04-10T06:02:27.376Z,11.17
2017-04-10T06:03:36.599Z,11.19
2017-04-10T06:04:46.163Z,11.21
2017-04-10T06:05:55.064Z,11.24
2017-04-10T06:07:04.281Z,11.18
2017-04-10T06:08:13.180Z,11.27
2017-04-10T06:09:22.395Z,11.21
2017-04-10T06:10:31.297Z,11.19
2017-04-10T06:11:40.191Z,11.21
2017-04-10T06:12:49.081Z,11.22
2017-04-10T06:13:57.973Z,11.21
2017-04-10T06:15:06.865Z,11.21
2017-04-10T06:16:15.907Z,11.18
2017-04-10T06:17:24.804Z,11.27
2017-04-10T06:18:33.695Z,11.24
2017-04-10T06:19:42.584Z,11.21
2017-04-10T06:20:51.479Z,11.25
2017-04-10T06:22:00.522Z,11.27
2017-04-10T06:23:09.738Z,11.24
2017-04-10T06:24:18.629Z,11.1
2017-04-10T06:25:27.562Z,11.22
2017-04-10T06:26:36.781Z,11.1
2017-04-10T06:27:46.577Z,11.27
2017-04-10T06:28:55.494Z,11.07
2017-04-10T06:30:04.386Z,11.24
2017-04-10T06:31:13.279Z,11.18
2017-04-10T06:32:22.179Z,11.27
2017-04-10T06:33:31.270Z,11.15
2017-04-10T06:34:40.179Z,11.15
2017-04-10T06:35:49.074Z,11.14
2017-04-10T06:36:57.969Z,11.17
2017-04-10T06:38:06.861Z,11.22
2017-04-10T06:39:16.331Z,11.11
2017-04-10T06:40:25.223Z,11.19
2017-04-10T06:41:34.442Z,11.09
2017-04-10T06:42:43.339Z,11.25
2017-04-10T06:43:52.232Z,11.28
2017-04-10T06:45:01.223Z,11.24
2017-04-10T06:46:10.441Z,11.19
2017-04-10T06:47:19.333Z,11.21
2017-04-10T06:48:28.235Z,11.25
2017-04-10T06:49:37.132Z,11.19
2017-04-10T06:50:46.498Z,11.22
2017-04-10T06:51:56.048Z,11.22
2017-04-10T06:53:05.629Z,11.22
2017-04-10T06:54:14.566Z,11.25
2017-04-10T06:55:24.159Z,11.14
2017-04-10T06:56:33.238Z,11.19
2017-04-10T06:57:42.159Z,11.18
2017-04-10T06:58:51.050Z,11.29
2017-04-10T07:00:00.001Z,11.22
2017-04-10T07:01:08.913Z,11.15
2017-04-10T07:02:17.957Z,11.24
2017-04-10T07:03:26.879Z,11.19
2017-04-10T07:04:36.044Z,11.11
2017-04-10T07:05:44.937Z,11.09
2017-04-10T07:06:54.156Z,11.22
2017-04-10T07:08:03.560Z,11.19
2017-04-10T07:09:12.449Z,11.22
2017-04-10T07:10:21.342Z,11.21
2017-04-10T07:11:30.238Z,11.28
2017-04-10T07:12:39.785Z,11.22
2017-04-10T07:13:48.842Z,11.15
2017-04-10T07:14:58.056Z,11.06
2017-04-10T07:16:06.947Z,11.28
2017-04-10T07:17:15.881Z,11.24
2017-04-10T07:18:24.784Z,11.22
2017-04-10T07:19:34.158Z,11.25
2017-04-10T07:20:43.075Z,11.25
2017-04-10T07:21:51.975Z,11.18
2017-04-10T07:23:00.869Z,11.4
2017-04-10T07:24:09.762Z,11.37
2017-04-10T07:25:19.091Z,11.32
2017-04-10T07:26:27.988Z,11.43
2017-04-10T07:27:36.887Z,11.54
2017-04-10T07:28:45.776Z,11.69
2017-04-10T07:29:54.691Z,11.47
2017-04-10T07:31:03.846Z,11.42
2017-04-10T07:32:12.742Z,11.51
2017-04-10T07:33:21.637Z,11.54
2017-04-10T07:34:30.528Z,11.49
2017-04-10T07:35:40.067Z,11.4
2017-04-10T07:36:49.622Z,11.47
2017-04-10T07:37:58.510Z,11.46
2017-04-10T07:39:07.408Z,11.49
2017-04-10T07:40:16.629Z,11.43
2017-04-10T07:41:25.524Z,11.4
2017-04-10T07:42:35.072Z,11.54
2017-04-10T07:43:43.961Z,11.39
2017-04-10T07:44:52.857Z,11.46
2017-04-10T07:46:02.076Z,11.25
2017-04-10T07:47:11.623Z,11.21
2017-04-10T07:48:20.841Z,11.27
2017-04-10T07:49:29.736Z,11.33
2017-04-10T07:50:38.626Z,11.35
2017-04-10T07:51:47.521Z,11.42
2017-04-10T07:52:56.411Z,11.43
2017-04-10T07:54:05.304Z,11.35
2017-04-10T07:55:14.202Z,11.4
2017-04-10T07:56:23.096Z,11.42
2017-04-10T07:57:32.002Z,11.29
2017-04-10T07:58:40.895Z,11.21
2017-04-10T07:59:49.942Z,11.21
2017-04-10T08:00:58.832Z,11.32
2017-04-10T08:02:07.726Z,11.25
2017-04-10T08:03:16.617Z,11.25
2017-04-10T08:04:26.214Z,11.22
2017-04-10T08:05:35.266Z,11.25
2017-04-10T08:06:44.161Z,11.36
2017-04-10T08:07:53.052Z,11.29
2017-04-10T08:09:01.947Z,11.22
2017-04-10T08:10:11.488Z,11.11
2017-04-10T08:11:20.868Z,10.97
2017-04-10T08:12:30.739Z,11.09
2017-04-10T08:13:40.275Z,11.04
2017-04-10T08:14:49.166Z,10.99
2017-04-10T08:15:58.385Z,11.02
2017-04-10T08:17:07.653Z,11
2017-04-10T08:18:16.545Z,10.96
2017-04-10T08:19:25.784Z,10.88
2017-04-10T08:21:07.051Z,10.94
2017-04-10T08:22:16.469Z,10.94
2017-04-10T08:23:25.362Z,10.94
2017-04-10T08:24:34.257Z,10.89
2017-04-10T08:25:43.515Z,10.94
2017-04-10T08:26:52.418Z,10.89
2017-04-10T08:28:01.507Z,10.89
2017-04-10T08:29:11.068Z,10.85
2017-04-10T08:30:19.956Z,10.76
2017-04-10T08:31:28.846Z,10.91
2017-04-10T08:32:37.734Z,10.94
2017-04-10T08:33:46.778Z,10.74
2017-04-10T08:34:55.668Z,10.84
2017-04-10T08:36:04.562Z,10.73
2017-04-10T08:37:14.107Z,10.78
2017-04-10T08:38:22.995Z,10.6
2017-04-10T08:39:32.036Z,10.56
2017-04-10T08:40:40.930Z,10.56
2017-04-10T08:41:50.147Z,10.55
2017-04-10T08:42:59.035Z,10.61
2017-04-10T08:44:07.927Z,10.52
2017-04-10T08:45:17.225Z,10.52
2017-04-10T08:46:26.149Z,10.61
2017-04-10T08:47:35.041Z,10.86
2017-04-10T08:48:43.968Z,10.76
2017-04-10T08:49:52.890Z,10.81
2017-04-10T08:51:02.034Z,10.63
2017-04-10T08:52:10.927Z,10.61
2017-04-10T08:53:19.820Z,10.64
2017-04-10T08:54:29.041Z,10.74
2017-04-10T08:55:37.985Z,10.74
2017-04-10T08:56:47.028Z,10.89
2017-04-10T08:57:56.566Z,10.64
2017-04-10T08:59:05.785Z,10.73
2017-04-10T09:00:14.671Z,10.63
2017-04-10T09:01:23.888Z,10.56
2017-04-10T09:02:33.108Z,10.63
2017-04-10T09:03:42.005Z,10.84
2017-04-10T09:04:50.895Z,10.78
2017-04-10T09:05:59.788Z,10.81
2017-04-10T09:07:09.006Z,10.82
2017-04-10T09:08:18.099Z,10.84
2017-04-10T09:09:26.993Z,10.91
2017-04-10T09:10:36.207Z,10.78
2017-04-10T09:11:45.101Z,10.79
2017-04-10T09:12:53.990Z,10.94
2017-04-10T09:14:03.181Z,10.96
2017-04-10T09:15:12.083Z,11.09
2017-04-10T09:16:21.299Z,11
2017-04-10T09:17:30.515Z,10.92
2017-04-10T09:18:39.403Z,10.7
2017-04-10T09:19:48.444Z,10.82
2017-04-10T09:20:57.336Z,10.84
2017-04-10T09:22:06.556Z,10.89
2017-04-10T09:23:15.776Z,10.91
2017-04-10T09:24:24.665Z,10.85
2017-04-10T09:25:33.608Z,10.91
2017-04-10T09:26:42.498Z,10.6
2017-04-10T09:27:51.388Z,10.78
2017-04-10T09:29:00.604Z,10.91
2017-04-10T09:30:09.497Z,10.88
2017-04-10T09:31:18.716Z,10.78
2017-04-10T09:32:27.613Z,10.76
2017-04-10T09:33:36.503Z,10.85
2017-04-10T09:34:45.430Z,10.78
2017-04-10T09:35:54.331Z,10.48
2017-04-10T09:37:03.377Z,10.51
2017-04-10T09:38:12.273Z,10.42
2017-04-10T09:39:21.163Z,10.56
2017-04-10T09:40:30.716Z,10.68
2017-04-10T09:41:39.955Z,10.61
2017-04-10T09:42:48.993Z,10.7
2017-04-10T09:43:57.886Z,10.7
2017-04-10T09:45:06.780Z,10.52
2017-04-10T09:46:15.672Z,10.7
2017-04-10T09:47:24.570Z,10.74
2017-04-10T09:48:33.768Z,10.7
2017-04-10T09:49:42.657Z,10.6
2017-04-10T09:50:51.552Z,10.48
2017-04-10T09:52:00.441Z,10.38
2017-04-10T09:53:09.333Z,10.34
2017-04-10T09:54:18.473Z,10.22
2017-04-10T09:55:27.368Z,10.41
2017-04-10T09:56:36.594Z,10.36
2017-04-10T09:57:45.488Z,10.22
2017-04-10T09:58:54.380Z,10.22
2017-04-10T10:00:03.272Z,10.11
2017-04-10T10:01:12.173Z,10.11
2017-04-10T10:02:21.064Z,10.23
2017-04-10T10:03:29.956Z,10.33
2017-04-10T10:04:38.858Z,10.2
2017-04-10T10:05:48.003Z,10.29
2017-04-10T10:06:56.907Z,10.26
2017-04-10T10:08:05.796Z,10.44
2017-04-10T10:09:14.687Z,10.4
2017-04-10T10:10:23.576Z,10.38
2017-04-10T10:11:32.665Z,10.41
2017-04-10T10:12:41.563Z,10.47
2017-04-10T10:13:50.452Z,10.52
2017-04-10T10:14:59.344Z,10.47
2017-04-10T10:16:08.564Z,10.64
2017-04-10T10:17:17.757Z,10.55
2017-04-10T10:18:26.646Z,10.63
2017-04-10T10:19:36.185Z,10.63
2017-04-10T10:20:45.076Z,10.59
2017-04-10T10:21:53.968Z,10.55
2017-04-10T10:23:03.337Z,10.34
2017-04-10T10:24:12.231Z,10.34
2017-04-10T10:25:21.126Z,10.32
2017-04-10T10:26:30.018Z,10.25
2017-04-10T10:27:39.235Z,10.38
2017-04-10T10:28:48.231Z,10.56
2017-04-10T10:29:57.130Z,10.51
2017-04-10T10:31:06.026Z,10.63
2017-04-10T10:32:14.917Z,10.42
2017-04-10T10:33:23.808Z,10.51
2017-04-10T10:34:32.749Z,10.52
2017-04-10T10:35:41.967Z,10.42
2017-04-10T10:36:51.185Z,10.42
2017-04-10T10:38:00.403Z,10.6
2017-04-10T10:39:09.950Z,10.63
2017-04-10T10:40:19.216Z,10.81
2017-04-10T10:41:28.110Z,10.92
2017-04-10T10:42:37.004Z,10.96
2017-04-10T10:43:45.892Z,10.97
2017-04-10T10:44:54.789Z,10.84
2017-04-10T10:46:03.880Z,10.71
2017-04-10T10:47:12.772Z,10.92
2017-04-10T10:48:21.991Z,10.92
2017-04-10T10:49:31.206Z,10.89
2017-04-10T10:50:40.097Z,11.03
2017-04-10T10:51:49.294Z,10.99
2017-04-10T10:52:58.511Z,11.15
2017-04-10T10:54:07.407Z,11.11
2017-04-10T10:55:16.302Z,11.15
2017-04-10T10:56:25.196Z,11.28
2017-04-10T10:57:34.352Z,11.21
2017-04-10T10:58:43.244Z,11.33
2017-04-10T10:59:52.142Z,11.44
2017-04-10T11:01:01.358Z,11.55
2017-04-10T11:02:10.591Z,11.52
2017-04-10T11:03:19.583Z,11.24
2017-04-10T11:04:28.802Z,11.19
2017-04-10T11:05:37.694Z,11.15
2017-04-10T11:06:46.912Z,11.22
2017-04-10T11:07:56.129Z,11.32
2017-04-10T11:09:05.222Z,11.42
2017-04-10T11:10:14.128Z,11.43
2017-04-10T11:11:23.345Z,11.46
2017-04-10T11:12:32.239Z,11.51
2017-04-10T11:13:41.137Z,11.6
2017-04-10T11:14:50.509Z,11.7
2017-04-10T11:15:59.724Z,11.69
2017-04-10T11:17:08.620Z,11.6
2017-04-10T11:18:17.839Z,11.69
2017-04-10T11:19:26.732Z,11.64
2017-04-10T11:20:35.631Z,11.49
2017-04-10T11:21:44.525Z,11.57
2017-04-10T11:22:53.746Z,11.7
2017-04-10T11:24:02.647Z,11.76
2017-04-10T11:25:11.542Z,11.86
2017-04-10T11:26:20.838Z,11.96
2017-04-10T11:27:29.733Z,12.17
2017-04-10T11:28:38.630Z,12.07
2017-04-10T11:29:47.560Z,12.09
2017-04-10T11:30:56.461Z,12.17
2017-04-10T11:32:06.059Z,12.27
2017-04-10T11:33:14.964Z,12.27
2017-04-10T11:34:23.859Z,12.28
2017-04-10T11:35:32.752Z,12.24
2017-04-10T11:36:41.659Z,12.27
2017-04-10T11:37:51.403Z,12.28
2017-04-10T11:39:00.298Z,12.52
2017-04-10T11:40:09.193Z,12.64
2017-04-10T11:41:18.093Z,12.59
2017-04-10T11:42:26.990Z,12.34
2017-04-10T11:43:36.184Z,12.38
2017-04-10T11:44:45.082Z,12.42
2017-04-10T11:45:54.021Z,12.16
2017-04-10T11:47:03.245Z,12.31
2017-04-10T11:48:12.467Z,12.38
2017-04-10T11:49:21.505Z,12.39
2017-04-10T11:50:30.398Z,12.24
2017-04-10T11:51:39.299Z,12.39
2017-04-10T11:52:48.196Z,12.14
2017-04-10T11:53:57.435Z,12.31
2017-04-10T11:55:06.485Z,12.42
2017-04-10T11:56:15.387Z,12.5
2017-04-10T11:57:24.279Z,12.65
2017-04-10T11:58:33.189Z,12.56
2017-04-10T11:59:42.425Z,12.67
2017-04-10T12:00:51.485Z,12.67
2017-04-10T12:02:00.389Z,12.52
2017-04-10T12:03:09.614Z,12.47
2017-04-10T12:04:18.511Z,12.41
2017-04-10T12:05:27.415Z,12.53
2017-04-10T12:06:36.466Z,12.64
2017-04-10T12:07:45.685Z,12.78
2017-04-10T12:08:54.579Z,12.77
2017-04-10T12:10:03.477Z,13
2017-04-10T12:11:12.705Z,13.17
2017-04-10T12:12:21.970Z,13.07
2017-04-10T12:13:30.864Z,13.03
2017-04-10T12:14:40.098Z,13.44
2017-04-10T12:15:49.040Z,13.51
2017-04-10T12:16:57.996Z,13.54
2017-04-10T12:18:07.043Z,13.51
2017-04-10T12:19:15.940Z,13.29
2017-04-10T12:20:24.838Z,12.83
2017-04-10T12:21:33.739Z,12.72
2017-04-10T12:22:42.959Z,12.96
2017-04-10T12:23:51.918Z,12.9
2017-04-10T12:25:00.816Z,12.87
2017-04-10T12:26:09.712Z,12.75
2017-04-10T12:27:18.605Z,13
2017-04-10T12:28:28.147Z,13.1
2017-04-10T12:29:37.190Z,13.03
2017-04-10T12:30:46.095Z,13.04
2017-04-10T12:31:55.000Z,13.05
2017-04-10T12:33:03.902Z,13.17
2017-04-10T12:34:13.137Z,13.03
2017-04-10T12:35:22.284Z,13.05
2017-04-10T12:36:31.509Z,12.95
2017-04-10T12:37:40.407Z,13.17
2017-04-10T12:38:49.322Z,13.28
2017-04-10T12:39:58.221Z,13.52
2017-04-10T12:41:07.319Z,13.52
2017-04-10T12:42:16.218Z,13.51
2017-04-10T12:43:25.132Z,13.41
2017-04-10T12:44:34.033Z,13.32
2017-04-10T12:45:43.257Z,13.32
2017-04-10T12:46:52.627Z,13.23
2017-04-10T12:48:01.856Z,13.51
2017-04-10T12:49:10.750Z,13.05
2017-04-10T12:50:19.655Z,13.14
2017-04-10T12:51:28.557Z,13.3
2017-04-10T12:52:37.826Z,13.42
2017-04-10T12:53:46.722Z,13.45
2017-04-10T12:54:55.621Z,13.49
2017-04-10T12:56:04.514Z,13.62
2017-04-10T12:57:13.410Z,13.52
2017-04-10T12:58:22.358Z,13.59
2017-04-10T12:59:31.259Z,13.63
2017-04-10T13:00:40.482Z,13.73
2017-04-10T13:01:49.709Z,13.64
2017-04-10T13:02:58.602Z,13.62
2017-04-10T13:04:07.748Z,13.54
2017-04-10T13:05:16.646Z,13.39
2017-04-10T13:06:26.192Z,13.32
2017-04-10T13:07:35.412Z,12.95
2017-04-10T13:08:44.307Z,13
2017-04-10T13:09:53.253Z,13.32
2017-04-10T13:11:02.153Z,13.45
2017-04-10T13:12:11.050Z,13.33
2017-04-10T13:13:20.278Z,13.54
2017-04-10T13:14:29.871Z,13.71
2017-04-10T13:15:39.031Z,13.64
2017-04-10T13:16:47.931Z,13.77
2017-04-10T13:17:57.160Z,13.82
2017-04-10T13:19:06.388Z,13.64
2017-04-10T13:20:15.292Z,13.48
2017-04-10T13:21:24.291Z,13.19
2017-04-10T13:22:33.520Z,12.96
2017-04-10T13:23:42.418Z,12.85
2017-04-10T13:24:51.322Z,12.79
2017-04-10T13:26:00.217Z,12.93
2017-04-10T13:27:09.272Z,13.01
2017-04-10T13:28:18.824Z,12.92
2017-04-10T13:29:27.719Z,12.97
2017-04-10T13:30:36.615Z,13
2017-04-10T13:31:45.510Z,12.78
2017-04-10T13:32:55.085Z,12.78
2017-04-10T13:34:04.321Z,12.77
2017-04-10T13:35:13.221Z,12.86
2017-04-10T13:36:22.114Z,12.83
2017-04-10T13:37:31.047Z,12.86
2017-04-10T13:38:39.988Z,12.89
2017-04-10T13:39:48.883Z,12.71
2017-04-10T13:40:58.108Z,12.42
2017-04-10T13:42:06.998Z,12.52
2017-04-10T13:43:16.220Z,12.37
2017-04-10T13:44:25.161Z,12.45
2017-04-10T13:45:34.054Z,12.41
2017-04-10T13:46:42.947Z,12.39
2017-04-10T13:47:51.843Z,12.34
2017-04-10T13:49:00.733Z,12.21
2017-04-10T13:50:09.732Z,11.88
2017-04-10T13:51:18.624Z,12.14
2017-04-10T13:52:27.520Z,12.19
2017-04-10T13:53:36.415Z,12.2
2017-04-10T13:54:45.309Z,12.16
2017-04-10T13:55:54.401Z,12.01
2017-04-10T13:57:03.621Z,12.14
2017-04-10T13:58:12.520Z,12.12
2017-04-10T13:59:21.419Z,11.96
2017-04-10T14:00:30.322Z,11.91
2017-04-10T14:01:39.365Z,11.79
2017-04-10T14:02:48.588Z,11.76
2017-04-10T14:03:57.479Z,11.83
2017-04-10T14:05:06.379Z,11.91
2017-04-10T14:06:15.597Z,12.02
2017-04-10T14:07:24.862Z,12.28
2017-04-10T14:08:33.757Z,12.2
2017-04-10T14:09:42.644Z,12.37
2017-04-10T14:10:51.546Z,12.17
2017-04-10T14:12:00.439Z,12.27
2017-04-10T14:13:10.259Z,12.35
2017-04-10T14:14:19.471Z,12.35
2017-04-10T14:15:28.360Z,12.27
2017-04-10T14:16:37.256Z,12.24
2017-04-10T14:17:46.158Z,12.41
2017-04-10T14:18:55.207Z,12.28
2017-04-10T14:20:04.434Z,12.23
2017-04-10T14:21:13.657Z,12.17
2017-04-10T14:22:22.561Z,12.32
2017-04-10T14:23:31.787Z,12.17
2017-04-10T14:24:40.834Z,12.13
2017-04-10T14:25:50.058Z,12.27
2017-04-10T14:26:59.601Z,12.37
2017-04-10T14:28:08.497Z,12.46
2017-04-10T14:29:17.399Z,12.49
2017-04-10T14:30:26.774Z,12.29
2017-04-10T14:31:35.669Z,12.32
2017-04-10T14:32:44.563Z,12.46
2017-04-10T14:33:53.459Z,12.62
2017-04-10T14:35:03.009Z,12.7
2017-04-10T14:36:12.106Z,12.87
2017-04-10T14:37:21.009Z,12.82
2017-04-10T14:38:30.238Z,12.74
2017-04-10T14:39:39.135Z,12.68
2017-04-10T14:40:48.353Z,12.57
2017-04-10T14:41:57.445Z,12.42
2017-04-10T14:43:06.360Z,12.39
2017-04-10T14:44:15.264Z,12.56
2017-04-10T14:45:24.490Z,12.31
2017-04-10T14:46:33.387Z,12.16
2017-04-10T14:47:43.007Z,12.24
2017-04-10T14:48:51.903Z,12.39
2017-04-10T14:50:01.126Z,12.41
2017-04-10T14:51:10.027Z,12.19
2017-04-10T14:52:18.927Z,12.23
2017-04-10T14:53:27.971Z,12.29
2017-04-10T14:54:37.191Z,12.28
2017-04-10T14:55:46.096Z,12.39
2017-04-10T14:56:55.638Z,12.41
2017-04-10T14:58:04.867Z,12.45
2017-04-10T14:59:14.068Z,12.54
2017-04-10T15:00:23.294Z,12.37
2017-04-10T15:01:32.520Z,12.35